createdAt,value
2019-06-10T00:00:50.792Z,3.43
2019-06-10T00:03:20.625Z,3.57
2019-06-10T00:05:51.610Z,2.90
2019-06-10T00:08:20.926Z,4.07
2019-06-10T00:10:51.097Z,3.50
2019-06-10T00:13:20.949Z,3.07
2019-06-10T00:15:51.351Z,3.27
2019-06-10T00:18:35.506Z,3.47
2019-06-10T00:20:51.218Z,3.40
2019-06-10T00:23:21.291Z,3.80
2019-06-10T00:25:51.398Z,3.13
2019-06-10T00:28:21.591Z,3.20
2019-06-10T00:30:51.418Z,3.27
2019-06-10T00:33:21.448Z,3.10
2019-06-10T00:35:51.340Z,3.23
2019-06-10T00:38:21.417Z,2.80
2019-06-10T00:40:51.369Z,3.20
2019-06-10T00:43:21.352Z,3.60
2019-06-10T00:45:51.364Z,2.60
2019-06-10T00:48:26.270Z,2.83
2019-06-10T00:50:51.628Z,2.90
2019-06-10T00:53:21.210Z,3.17
2019-06-10T00:55:51.326Z,3.40
2019-06-10T00:58:21.433Z,3.00
2019-06-10T01:00:51.430Z,3.70
2019-06-10T01:03:20.892Z,3.17
2019-06-10T01:05:50.860Z,2.77
2019-06-10T01:08:21.511Z,3.03
2019-06-10T01:10:51.971Z,2.90
2019-06-10T01:13:20.819Z,2.80
2019-06-10T01:15:51.121Z,2.60
2019-06-10T01:18:34.602Z,2.77
2019-06-10T01:20:51.704Z,3.30
2019-06-10T01:23:21.890Z,3.63
2019-06-10T01:25:51.080Z,2.83
2019-06-10T01:28:22.043Z,3.20
2019-06-10T01:30:51.695Z,2.90
2019-06-10T01:33:21.247Z,2.87
2019-06-10T01:35:51.433Z,2.90
2019-06-10T01:38:21.179Z,2.43
2019-06-10T01:40:51.003Z,2.83
2019-06-10T01:43:21.377Z,2.77
2019-06-10T01:45:51.065Z,3.50
2019-06-10T01:48:20.952Z,3.43
2019-06-10T01:50:51.334Z,3.40
2019-06-10T01:53:21.445Z,3.37
2019-06-10T01:55:51.815Z,3.70
2019-06-10T01:58:23.351Z,3.43
2019-06-10T02:01:03.248Z,3.10
2019-06-10T02:03:31.695Z,3.27
2019-06-10T02:06:01.382Z,3.53
2019-06-10T02:08:31.711Z,2.80
2019-06-10T02:11:01.158Z,3.50
2019-06-10T02:13:33.453Z,3.20
2019-06-10T02:16:02.615Z,3.20
2019-06-10T02:18:31.988Z,2.60
2019-06-10T02:21:01.082Z,3.53
2019-06-10T02:23:31.320Z,2.93
2019-06-10T02:26:01.599Z,3.30
2019-06-10T02:28:31.734Z,3.23
2019-06-10T02:31:03.416Z,3.10
2019-06-10T02:33:34.987Z,3.40
2019-06-10T02:36:03.455Z,2.80
2019-06-10T02:38:35.490Z,3.13
2019-06-10T02:41:03.653Z,3.20
2019-06-10T02:43:33.347Z,3.13
2019-06-10T02:46:00.050Z,3.00
2019-06-10T02:48:30.456Z,3.57
2019-06-10T02:51:04.062Z,3.57
2019-06-10T02:53:36.073Z,3.50
2019-06-10T02:56:04.223Z,4.00
2019-06-10T02:58:38.517Z,3.77
2019-06-10T03:01:04.233Z,4.00
2019-06-10T03:03:42.834Z,3.20
2019-06-10T03:06:07.571Z,3.90
2019-06-10T03:08:35.905Z,3.60
2019-06-10T03:11:03.708Z,3.20
2019-06-10T03:13:33.148Z,3.97
2019-06-10T03:16:22.685Z,3.50
2019-06-10T03:18:52.391Z,3.67
2019-06-10T03:21:20.015Z,3.63
2019-06-10T03:23:48.020Z,3.90
2019-06-10T03:26:17.256Z,3.77
2019-06-10T03:28:45.831Z,4.37
2019-06-10T03:31:15.545Z,3.87
2019-06-10T03:33:47.741Z,3.13
2019-06-10T03:36:14.157Z,3.63
2019-06-10T03:38:43.189Z,4.17
2019-06-10T03:41:12.457Z,4.20
2019-06-10T03:43:42.974Z,3.77
2019-06-10T03:46:13.350Z,4.30
2019-06-10T03:48:43.222Z,4.33
2019-06-10T03:51:12.566Z,4.20
2019-06-10T03:53:42.596Z,4.47
2019-06-10T03:56:12.822Z,4.40
2019-06-10T03:58:43.017Z,4.33
2019-06-10T04:01:12.274Z,3.63
2019-06-10T04:03:42.795Z,4.10
2019-06-10T04:06:12.987Z,4.53
2019-06-10T04:08:43.307Z,4.30
2019-06-10T04:11:12.156Z,4.33
2019-06-10T04:13:43.148Z,4.65
2019-06-10T04:16:13.130Z,4.00
2019-06-10T04:18:43.023Z,4.30
2019-06-10T04:21:12.929Z,4.73
2019-06-10T04:23:42.363Z,4.80
2019-06-10T04:26:12.755Z,4.33
2019-06-10T04:28:43.050Z,4.13
2019-06-10T04:31:13.128Z,4.37
2019-06-10T04:33:42.089Z,4.10
2019-06-10T04:36:13.209Z,5.20
2019-06-10T04:38:42.982Z,4.33
2019-06-10T04:41:12.636Z,4.53
2019-06-10T04:43:42.942Z,4.00
2019-06-10T04:46:12.673Z,4.40
2019-06-10T04:48:42.674Z,4.37
2019-06-10T04:51:12.743Z,4.60
2019-06-10T04:53:43.254Z,4.20
2019-06-10T04:56:12.276Z,4.23
2019-06-10T04:58:43.311Z,4.73
2019-06-10T05:01:18.869Z,4.60
2019-06-10T05:03:46.564Z,4.40
2019-06-10T05:06:14.824Z,4.67
2019-06-10T05:08:43.105Z,4.03
2019-06-10T05:11:12.773Z,4.13
2019-06-10T05:13:42.990Z,4.07
2019-06-10T05:16:12.555Z,4.30
2019-06-10T05:18:42.396Z,4.20
2019-06-10T05:21:13.174Z,4.50
2019-06-10T05:23:42.958Z,4.40
2019-06-10T05:26:13.195Z,4.60
2019-06-10T05:28:43.312Z,4.50
2019-06-10T05:31:12.911Z,4.13
2019-06-10T05:33:42.674Z,3.20
2019-06-10T05:36:13.204Z,3.90
2019-06-10T05:38:43.525Z,3.77
2019-06-10T05:41:13.368Z,3.27
2019-06-10T05:43:43.020Z,3.53
2019-06-10T05:46:13.148Z,3.53
2019-06-10T05:48:43.510Z,3.80
2019-06-10T05:51:12.387Z,3.20
2019-06-10T05:53:42.586Z,3.17
2019-06-10T05:56:12.790Z,3.10
2019-06-10T05:58:43.581Z,3.30
2019-06-10T06:01:13.160Z,2.87
2019-06-10T06:03:43.916Z,2.60
2019-06-10T06:06:12.478Z,2.37
2019-06-10T06:08:42.869Z,2.60
2019-06-10T06:11:12.638Z,2.73
2019-06-10T06:13:43.306Z,2.47
2019-06-10T06:16:12.590Z,2.10
2019-06-10T06:18:42.299Z,2.20
2019-06-10T06:21:22.525Z,1.90
2019-06-10T06:23:43.397Z,2.83
2019-06-10T06:26:16.375Z,2.27
2019-06-10T06:28:42.987Z,2.40
2019-06-10T06:31:12.717Z,2.40
2019-06-10T06:33:43.274Z,2.50
2019-06-10T06:36:12.495Z,2.20
2019-06-10T06:38:43.593Z,2.57
2019-06-10T06:41:13.416Z,2.40
2019-06-10T06:43:44.991Z,2.60
2019-06-10T06:46:12.889Z,2.40
2019-06-10T06:48:43.779Z,2.80
2019-06-10T06:51:12.929Z,3.00
2019-06-10T06:53:48.318Z,2.67
2019-06-10T06:56:12.577Z,2.50
2019-06-10T06:58:43.284Z,2.70
2019-06-10T07:01:14.407Z,2.70
2019-06-10T07:03:44.670Z,2.97
2019-06-10T07:06:13.149Z,2.67
2019-06-10T07:08:44.718Z,2.57
2019-06-10T07:11:13.211Z,2.67
2019-06-10T07:13:45.537Z,2.83
2019-06-10T07:16:13.183Z,3.07
2019-06-10T07:18:48.842Z,2.42
2019-06-10T07:21:13.225Z,2.27
2019-06-10T07:24:03.075Z,2.70
2019-06-10T07:26:34.131Z,2.40
2019-06-10T07:29:02.879Z,2.33
2019-06-10T07:31:33.770Z,2.00
2019-06-10T07:34:02.574Z,2.43
2019-06-10T07:36:32.913Z,2.57
2019-06-10T07:39:03.478Z,2.20
2019-06-10T07:41:32.787Z,2.30
2019-06-10T07:44:03.071Z,2.30
2019-06-10T07:46:33.544Z,2.00
2019-06-10T07:49:03.362Z,2.20
2019-06-10T07:51:32.912Z,1.90
2019-06-10T07:54:03.170Z,1.70
2019-06-10T07:56:37.243Z,1.90
2019-06-10T07:59:03.895Z,1.90
2019-06-10T08:01:33.280Z,1.73
2019-06-10T08:04:03.128Z,2.50
2019-06-10T08:06:33.486Z,1.67
2019-06-10T08:09:02.285Z,1.70
2019-06-10T08:11:33.102Z,1.67
2019-06-10T08:14:04.580Z,1.63
2019-06-10T08:16:32.740Z,1.40
2019-06-10T08:19:21.939Z,1.53
2019-06-10T08:21:32.318Z,1.50
2019-06-10T08:24:03.325Z,1.70
2019-06-10T08:26:32.427Z,1.50
2019-06-10T08:29:04.142Z,1.33
2019-06-10T08:31:33.325Z,1.60
2019-06-10T08:34:02.945Z,1.77
2019-06-10T08:36:33.365Z,1.50
2019-06-10T08:39:03.361Z,1.50
2019-06-10T08:41:32.361Z,1.80
2019-06-10T08:44:02.279Z,1.60
2019-06-10T08:46:32.766Z,1.50
2019-06-10T08:49:03.000Z,1.30
2019-06-10T08:51:32.464Z,1.70
2019-06-10T08:54:02.375Z,1.63
2019-06-10T08:56:32.789Z,1.70
2019-06-10T08:59:03.077Z,1.57
2019-06-10T09:01:31.137Z,1.60
2019-06-10T09:04:03.201Z,1.80
2019-06-10T09:06:32.794Z,2.00
2019-06-10T09:09:03.190Z,2.10
2019-06-10T09:11:32.875Z,1.73
2019-06-10T09:14:02.603Z,1.80
2019-06-10T09:16:32.839Z,1.70
2019-06-10T09:19:02.246Z,1.60
2019-06-10T09:21:33.103Z,2.00
2019-06-10T09:24:03.909Z,1.77
2019-06-10T09:26:33.730Z,1.80
2019-06-10T09:29:02.914Z,1.97
2019-06-10T09:31:33.182Z,1.90
2019-06-10T09:34:03.933Z,2.00
2019-06-10T09:36:32.555Z,2.00
2019-06-10T09:39:04.025Z,1.80
2019-06-10T09:41:40.187Z,1.60
2019-06-10T09:44:03.364Z,2.27
2019-06-10T09:46:33.116Z,2.00
2019-06-10T09:49:02.173Z,2.07
2019-06-10T09:51:32.372Z,1.70
2019-06-10T09:54:06.073Z,1.90
2019-06-10T09:56:33.007Z,2.00
2019-06-10T09:59:03.121Z,1.90
2019-06-10T10:01:32.683Z,1.60
2019-06-10T10:04:01.215Z,1.93
2019-06-10T10:06:29.637Z,1.90
2019-06-10T10:08:58.562Z,2.00
2019-06-10T10:11:28.882Z,1.90
2019-06-10T10:13:57.502Z,1.73
2019-06-10T10:16:26.574Z,2.07
2019-06-10T10:19:00.237Z,2.23
2019-06-10T10:21:24.903Z,1.83
2019-06-10T10:24:06.548Z,2.13
2019-06-10T10:26:23.266Z,1.70
2019-06-10T10:28:56.034Z,2.33
2019-06-10T10:31:23.830Z,1.70
2019-06-10T10:33:52.645Z,1.80
2019-06-10T10:36:22.658Z,2.20
2019-06-10T10:38:51.152Z,2.20
2019-06-10T10:41:19.410Z,1.87
2019-06-10T10:43:50.734Z,2.27
2019-06-10T10:46:17.674Z,2.17
2019-06-10T10:48:47.063Z,2.50
2019-06-10T10:51:15.561Z,1.97
2019-06-10T10:53:48.363Z,2.10
2019-06-10T10:56:13.920Z,2.43
2019-06-10T10:58:43.726Z,2.47
2019-06-10T11:01:15.061Z,1.93
2019-06-10T11:03:44.956Z,1.80
2019-06-10T11:06:12.937Z,2.70
2019-06-10T11:08:44.199Z,1.93
2019-06-10T11:11:13.406Z,1.90
2019-06-10T11:13:45.343Z,2.60
2019-06-10T11:16:14.046Z,2.10
2019-06-10T11:18:42.461Z,2.50
2019-06-10T11:21:13.041Z,2.17
2019-06-10T11:23:43.542Z,2.57
2019-06-10T11:26:12.955Z,2.07
2019-06-10T11:28:42.818Z,2.13
2019-06-10T11:31:13.419Z,2.30
2019-06-10T11:33:43.197Z,2.20
2019-06-10T11:36:13.224Z,2.00
2019-06-10T11:38:40.811Z,2.10
2019-06-10T11:41:09.155Z,2.33
2019-06-10T11:43:37.442Z,2.57
2019-06-10T11:46:07.729Z,2.10
2019-06-10T11:48:36.376Z,2.60
2019-06-10T11:51:05.025Z,2.40
2019-06-10T11:53:34.431Z,2.40
2019-06-10T11:56:03.120Z,2.43
2019-06-10T11:58:33.280Z,2.67
2019-06-10T12:01:03.865Z,2.17
2019-06-10T12:03:31.352Z,1.90
2019-06-10T12:06:02.018Z,2.50
2019-06-10T12:08:29.618Z,2.30
2019-06-10T12:11:01.836Z,2.30
2019-06-10T12:13:27.933Z,2.77
2019-06-10T12:18:26.804Z,2.70
2019-06-10T12:20:59.006Z,3.03
2019-06-10T12:23:25.248Z,2.30
2019-06-10T12:25:56.280Z,2.60
2019-06-10T12:28:23.492Z,2.87
2019-06-10T12:30:56.207Z,2.73
2019-06-10T12:33:25.571Z,2.90
2019-06-10T12:35:57.681Z,2.60
2019-06-10T12:38:23.672Z,2.50
2019-06-10T12:40:55.993Z,2.73
2019-06-10T12:43:23.205Z,3.13
2019-06-10T12:45:53.982Z,2.70
2019-06-10T12:48:23.280Z,2.80
2019-06-10T12:51:05.132Z,2.80
2019-06-10T12:53:26.589Z,2.73
2019-06-10T12:55:55.849Z,2.63
2019-06-10T12:58:24.840Z,3.23
2019-06-10T13:00:54.094Z,3.20
2019-06-10T13:03:23.778Z,3.40
2019-06-10T13:05:53.347Z,5.47
2019-06-10T13:08:23.860Z,5.37
2019-06-10T13:10:53.257Z,5.40
2019-06-10T13:13:22.732Z,5.30
2019-06-10T13:15:53.245Z,5.50
2019-06-10T13:18:23.735Z,5.30
2019-06-10T13:20:53.801Z,5.70
2019-06-10T13:23:28.954Z,5.30
2019-06-10T13:25:58.093Z,5.47
2019-06-10T13:28:22.283Z,6.17
2019-06-10T13:30:54.051Z,6.47
2019-06-10T13:33:22.914Z,6.63
2019-06-10T13:35:53.516Z,5.83
2019-06-10T13:38:22.786Z,5.27
2019-06-10T13:40:53.297Z,5.40
2019-06-10T13:43:23.256Z,5.73
2019-06-10T13:45:53.173Z,5.20
2019-06-10T13:48:23.359Z,5.10
2019-06-10T13:50:52.816Z,5.77
2019-06-10T13:53:21.354Z,5.33
2019-06-10T13:55:52.777Z,5.03
2019-06-10T13:58:26.638Z,5.23
2019-06-10T14:00:57.785Z,4.57
2019-06-10T14:03:26.648Z,4.27
2019-06-10T14:05:58.654Z,4.10
2019-06-10T14:08:24.948Z,4.20
2019-06-10T14:10:53.899Z,4.27
2019-06-10T14:13:23.805Z,4.20
2019-06-10T14:15:53.380Z,4.77
2019-06-10T14:18:23.174Z,4.17
2019-06-10T14:20:53.271Z,4.53
2019-06-10T14:23:22.481Z,4.10
2019-06-10T14:25:52.593Z,4.20
2019-06-10T14:28:38.705Z,3.93
2019-06-10T14:30:54.292Z,4.30
2019-06-10T14:33:24.941Z,4.17
2019-06-10T14:35:54.834Z,3.93
2019-06-10T14:38:27.781Z,4.13
2019-06-10T14:40:56.044Z,4.50
2019-06-10T14:43:24.488Z,4.37
2019-06-10T14:45:53.372Z,4.07
2019-06-10T14:48:23.279Z,4.67
2019-06-10T14:50:52.263Z,4.47
2019-06-10T14:53:22.959Z,4.73
2019-06-10T14:55:53.214Z,4.37
2019-06-10T14:58:23.124Z,5.20
2019-06-10T15:00:54.178Z,4.70
2019-06-10T15:03:20.876Z,4.97
2019-06-10T15:05:49.144Z,5.83
2019-06-10T15:08:17.510Z,6.27
2019-06-10T15:10:45.770Z,6.80
2019-06-10T15:13:14.035Z,6.70
2019-06-10T15:15:42.555Z,5.90
2019-06-10T15:18:12.188Z,8.10
2019-06-10T15:20:42.825Z,7.97
2019-06-10T15:23:13.923Z,7.93
2019-06-10T15:25:50.205Z,7.17
2019-06-10T15:28:13.186Z,7.53
2019-06-10T15:30:43.253Z,6.73
2019-06-10T15:33:13.244Z,9.33
2019-06-10T15:35:42.733Z,9.90
2019-06-10T15:38:13.930Z,9.60
2019-06-10T15:40:43.157Z,9.07
2019-06-10T15:43:11.782Z,9.50
2019-06-10T15:45:40.309Z,10.53
2019-06-10T15:48:10.191Z,10.97
2019-06-10T15:50:58.060Z,10.80
2019-06-10T15:53:26.339Z,10.43
2019-06-10T15:56:13.109Z,10.50
2019-06-10T15:58:26.075Z,9.60
2019-06-10T16:00:54.539Z,7.50
2019-06-10T16:03:25.479Z,7.27
2019-06-10T16:05:53.192Z,8.43
2019-06-10T16:08:22.569Z,7.30
2019-06-10T16:10:52.693Z,8.67
2019-06-10T16:13:24.012Z,9.17
2019-06-10T16:15:53.191Z,9.50
2019-06-10T16:18:25.152Z,9.07
2019-06-10T16:20:52.823Z,8.87
2019-06-10T16:23:24.600Z,9.57
2019-06-10T16:25:53.369Z,10.03
2019-06-10T16:28:23.397Z,10.43
2019-06-10T16:30:53.800Z,10.43
2019-06-10T16:33:24.052Z,11.67
2019-06-10T16:35:51.324Z,11.13
2019-06-10T16:38:22.374Z,13.10
2019-06-10T16:40:49.663Z,12.73
2019-06-10T16:43:17.943Z,13.23
2019-06-10T16:45:46.288Z,13.50
2019-06-10T16:48:14.560Z,15.03
2019-06-10T16:50:42.838Z,14.37
2019-06-10T16:53:13.689Z,14.20
2019-06-10T16:55:41.344Z,14.10
2019-06-10T16:58:10.068Z,15.63
2019-06-10T17:00:38.407Z,12.77
2019-06-10T17:03:08.151Z,14.63
2019-06-10T17:05:36.607Z,14.07
2019-06-10T17:08:05.800Z,14.60
2019-06-10T17:10:34.514Z,13.77
2019-06-10T17:13:04.657Z,14.20
2019-06-10T17:15:33.026Z,13.57
2019-06-10T17:18:02.841Z,14.00
2019-06-10T17:20:34.162Z,14.30
2019-06-10T17:23:03.288Z,13.83
2019-06-10T17:25:33.809Z,13.63
2019-06-10T17:28:15.065Z,16.07
2019-06-10T17:30:34.638Z,16.10
2019-06-10T17:33:02.355Z,14.50
2019-06-10T17:35:35.748Z,15.90
2019-06-10T17:38:02.761Z,16.50
2019-06-10T17:40:31.682Z,15.70
2019-06-10T17:43:02.424Z,11.83
2019-06-10T17:45:32.199Z,13.10
2019-06-10T17:48:02.959Z,15.77
2019-06-10T17:50:32.865Z,16.20
2019-06-10T17:53:02.571Z,18.13
2019-06-10T17:55:34.101Z,18.43
2019-06-10T17:58:02.939Z,19.07
2019-06-10T18:00:34.441Z,20.00
2019-06-10T18:03:03.746Z,19.50
2019-06-10T18:05:31.526Z,20.23
2019-06-10T18:08:02.171Z,19.10
2019-06-10T18:10:29.960Z,17.67
2019-06-10T18:13:12.722Z,18.37
2019-06-10T18:15:28.295Z,19.30
2019-06-10T18:17:56.642Z,18.80
2019-06-10T18:20:26.424Z,19.27
2019-06-10T18:22:54.896Z,22.27
2019-06-10T18:25:24.801Z,21.73
2019-06-10T18:27:56.348Z,19.83
2019-06-10T18:30:25.114Z,19.13
2019-06-10T18:32:54.329Z,17.93
2019-06-10T18:35:25.849Z,19.63
2019-06-10T18:37:56.941Z,19.67
2019-06-10T18:40:27.466Z,18.90
2019-06-10T18:42:57.020Z,19.13
2019-06-10T18:45:25.285Z,17.00
2019-06-10T18:47:55.996Z,15.33
2019-06-10T18:50:28.096Z,17.87
2019-06-10T18:52:58.584Z,17.13
2019-06-10T18:55:26.442Z,16.63
2019-06-10T18:57:59.365Z,17.70
2019-06-10T19:00:44.971Z,18.80
2019-06-10T19:03:10.399Z,20.53
2019-06-10T19:05:33.101Z,20.17
2019-06-10T19:08:02.456Z,20.67
2019-06-10T19:10:33.540Z,19.77
2019-06-10T19:13:05.559Z,21.47
2019-06-10T19:15:33.889Z,22.00
2019-06-10T19:18:03.593Z,21.63
2019-06-10T19:20:36.416Z,23.30
2019-06-10T19:23:02.585Z,23.53
2019-06-10T19:25:33.783Z,24.50
2019-06-10T19:28:01.330Z,24.23
2019-06-10T19:30:31.119Z,25.10
2019-06-10T19:32:59.580Z,23.40
2019-06-10T19:35:27.864Z,22.20
2019-06-10T19:38:12.540Z,25.47
2019-06-10T19:40:42.902Z,26.43
2019-06-10T19:43:12.969Z,25.30
2019-06-10T19:45:46.966Z,26.47
2019-06-10T19:48:16.840Z,23.87
2019-06-10T19:50:51.311Z,25.07
2019-06-10T19:53:19.076Z,24.93
2019-06-10T19:55:47.334Z,26.43
2019-06-10T19:58:15.597Z,25.10
2019-06-10T20:00:50.729Z,28.13
2019-06-10T20:03:14.240Z,25.90
2019-06-10T20:05:44.810Z,25.80
2019-06-10T20:08:12.513Z,25.30
2019-06-10T20:10:40.771Z,26.53
2019-06-10T20:13:09.033Z,25.97
2019-06-10T20:15:37.440Z,25.80
2019-06-10T20:18:05.780Z,29.47
2019-06-10T20:20:34.045Z,29.03
2019-06-10T20:23:03.037Z,29.67
2019-06-10T20:25:32.897Z,28.30
2019-06-10T20:28:02.840Z,26.57
2019-06-10T20:30:33.277Z,28.33
2019-06-10T20:33:03.375Z,26.27
2019-06-10T20:35:32.682Z,26.33
2019-06-10T20:38:04.602Z,29.87
2019-06-10T20:40:32.028Z,31.87
2019-06-10T20:43:03.171Z,33.17
2019-06-10T20:45:33.178Z,31.67
2019-06-10T20:48:02.679Z,31.10
2019-06-10T20:50:32.336Z,29.50
2019-06-10T20:53:12.073Z,31.73
2019-06-10T20:55:40.488Z,35.23
2019-06-10T20:58:04.220Z,33.67
2019-06-10T21:00:36.696Z,34.37
2019-06-10T21:03:05.568Z,31.63
2019-06-10T21:05:34.094Z,35.40
2019-06-10T21:08:03.816Z,32.40
2019-06-10T21:10:34.870Z,33.77
2019-06-10T21:13:05.523Z,34.43
2019-06-10T21:15:35.049Z,36.23
2019-06-10T21:18:03.330Z,34.73
2019-06-10T21:20:33.146Z,36.53
2019-06-10T21:23:03.021Z,37.83
2019-06-10T21:25:32.442Z,37.40
2019-06-10T21:28:03.181Z,38.57
2019-06-10T21:30:38.458Z,36.70
2019-06-10T21:33:03.540Z,38.87
2019-06-10T21:35:31.638Z,41.07
2019-06-10T21:38:00.236Z,36.93
2019-06-10T21:40:28.492Z,39.93
2019-06-10T21:42:56.756Z,41.77
2019-06-10T21:45:25.110Z,43.60
2019-06-10T21:47:54.544Z,42.27
2019-06-10T21:50:23.012Z,43.33
2019-06-10T21:52:53.484Z,38.93
2019-06-10T21:55:22.484Z,40.33
2019-06-10T21:57:53.176Z,40.63
2019-06-10T22:00:23.731Z,40.70
2019-06-10T22:02:58.045Z,41.07
2019-06-10T22:05:22.477Z,40.43
2019-06-10T22:07:54.883Z,40.70
2019-06-10T22:10:22.843Z,39.37
2019-06-10T22:12:53.115Z,38.93
2019-06-10T22:15:22.615Z,36.53
2019-06-10T22:17:52.962Z,39.13
2019-06-10T22:20:22.699Z,37.73
2019-06-10T22:22:53.236Z,39.37
2019-06-10T22:25:22.372Z,41.87
2019-06-10T22:27:51.865Z,42.80
2019-06-10T22:30:22.712Z,41.53
2019-06-10T22:32:52.666Z,43.57
2019-06-10T22:35:22.930Z,40.60
2019-06-10T22:37:52.600Z,41.17
2019-06-10T22:40:22.409Z,43.73
2019-06-10T22:42:53.680Z,42.93
2019-06-10T22:45:20.510Z,43.93
2019-06-10T22:47:49.711Z,46.77
2019-06-10T22:50:18.783Z,46.93
2019-06-10T22:52:47.229Z,48.87
2019-06-10T22:55:15.615Z,47.60
2019-06-10T22:57:44.096Z,45.80
2019-06-10T23:00:13.140Z,47.17
2019-06-10T23:02:43.732Z,45.70
2019-06-10T23:05:13.250Z,46.73
2019-06-10T23:07:43.385Z,48.50
2019-06-10T23:10:12.350Z,52.27
2019-06-10T23:12:42.969Z,53.83
2019-06-10T23:15:12.925Z,50.80
2019-06-10T23:17:42.306Z,51.20
2019-06-10T23:20:12.403Z,50.00
2019-06-10T23:22:41.076Z,51.47
2019-06-10T23:25:09.331Z,52.10
2019-06-10T23:27:40.871Z,51.03
2019-06-10T23:30:11.748Z,50.00
2019-06-10T23:32:38.339Z,56.57
2019-06-10T23:35:06.893Z,52.40
2019-06-10T23:37:35.251Z,53.13
2019-06-10T23:40:04.490Z,55.03
2019-06-10T23:42:33.308Z,51.83
2019-06-10T23:45:04.742Z,55.80
2019-06-10T23:47:32.645Z,58.20
2019-06-10T23:50:04.183Z,56.87
2019-06-10T23:52:32.964Z,55.20
2019-06-10T23:55:03.095Z,56.17
2019-06-10T23:57:32.924Z,54.83
